sensor_id;sensor_type;location;lat;lon;timestamp;P1;durP1;ratioP1;P2;durP2;ratioP2
31730;SDS011;18310;55.586;12.286;2024-01-16T00:00:42;8.80;;;3.13;;
31730;SDS011;18310;55.586;12.286;2024-01-16T00:04:35;7.93;;;3.25;;
31730;SDS011;18310;55.586;12.286;2024-01-16T00:07:39;9.57;;;3.75;;
31730;SDS011;18310;55.586;12.286;2024-01-16T00:13:46;11.10;;;3.75;;
31730;SDS011;18310;55.586;12.286;2024-01-16T00:16:51;8.98;;;3.38;;
31730;SDS011;18310;55.586;12.286;2024-01-16T00:19:56;7.38;;;3.13;;
31730;SDS011;18310;55.586;12.286;2024-01-16T00:23:02;8.43;;;3.28;;
31730;SDS011;18310;55.586;12.286;2024-01-16T00:29:09;9.88;;;3.30;;
31730;SDS011;18310;55.586;12.286;2024-01-16T00:32:16;9.68;;;4.18;;
31730;SDS011;18310;55.586;12.286;2024-01-16T00:38:24;8.98;;;3.42;;
31730;SDS011;18310;55.586;12.286;2024-01-16T00:41:27;11.15;;;4.55;;
31730;SDS011;18310;55.586;12.286;2024-01-16T00:44:31;12.70;;;3.60;;
31730;SDS011;18310;55.586;12.286;2024-01-16T00:47:38;11.65;;;3.42;;
31730;SDS011;18310;55.586;12.286;2024-01-16T00:50:43;10.25;;;3.83;;
31730;SDS011;18310;55.586;12.286;2024-01-16T00:53:48;7.20;;;3.53;;
31730;SDS011;18310;55.586;12.286;2024-01-16T00:56:51;6.45;;;2.88;;
31730;SDS011;18310;55.586;12.286;2024-01-16T00:59:57;7.80;;;3.65;;
31730;SDS011;18310;55.586;12.286;2024-01-16T01:03:00;10.40;;;3.70;;
31730;SDS011;18310;55.586;12.286;2024-01-16T01:06:07;8.27;;;3.60;;
31730;SDS011;18310;55.586;12.286;2024-01-16T01:09:11;8.70;;;2.83;;
31730;SDS011;18310;55.586;12.286;2024-01-16T01:15:17;7.97;;;3.40;;
31730;SDS011;18310;55.586;12.286;2024-01-16T01:18:22;8.38;;;3.17;;
31730;SDS011;18310;55.586;12.286;2024-01-16T01:21:27;9.02;;;3.15;;
31730;SDS011;18310;55.586;12.286;2024-01-16T01:24:31;5.53;;;2.95;;
31730;SDS011;18310;55.586;12.286;2024-01-16T01:30:38;5.20;;;2.15;;
31730;SDS011;18310;55.586;12.286;2024-01-16T01:36:47;5.93;;;2.47;;
31730;SDS011;18310;55.586;12.286;2024-01-16T01:39:50;7.57;;;2.60;;
31730;SDS011;18310;55.586;12.286;2024-01-16T01:42:53;6.03;;;2.28;;
31730;SDS011;18310;55.586;12.286;2024-01-16T01:46:08;4.45;;;2.10;;
31730;SDS011;18310;55.586;12.286;2024-01-16T01:50:14;6.05;;;2.50;;
31730;SDS011;18310;55.586;12.286;2024-01-16T01:53:18;7.75;;;2.30;;
31730;SDS011;18310;55.586;12.286;2024-01-16T01:56:21;7.20;;;2.63;;
31730;SDS011;18310;55.586;12.286;2024-01-16T01:59:25;7.05;;;2.85;;
31730;SDS011;18310;55.586;12.286;2024-01-16T02:02:28;9.23;;;2.83;;
31730;SDS011;18310;55.586;12.286;2024-01-16T02:05:33;5.75;;;2.72;;
31730;SDS011;18310;55.586;12.286;2024-01-16T02:08:37;6.07;;;2.88;;
31730;SDS011;18310;55.586;12.286;2024-01-16T02:11:41;5.50;;;2.90;;
31730;SDS011;18310;55.586;12.286;2024-01-16T02:14:45;7.47;;;3.10;;
31730;SDS011;18310;55.586;12.286;2024-01-16T02:17:48;5.60;;;2.75;;
31730;SDS011;18310;55.586;12.286;2024-01-16T02:20:53;6.25;;;2.42;;
31730;SDS011;18310;55.586;12.286;2024-01-16T02:24:02;6.50;;;3.00;;
31730;SDS011;18310;55.586;12.286;2024-01-16T02:27:06;7.72;;;3.15;;
31730;SDS011;18310;55.586;12.286;2024-01-16T02:30:10;7.80;;;3.28;;
31730;SDS011;18310;55.586;12.286;2024-01-16T02:33:14;6.55;;;2.92;;
31730;SDS011;18310;55.586;12.286;2024-01-16T02:36:17;8.88;;;3.60;;
31730;SDS011;18310;55.586;12.286;2024-01-16T02:39:22;7.47;;;3.35;;
31730;SDS011;18310;55.586;12.286;2024-01-16T02:42:26;6.97;;;3.15;;
31730;SDS011;18310;55.586;12.286;2024-01-16T02:45:29;11.85;;;3.53;;
31730;SDS011;18310;55.586;12.286;2024-01-16T02:48:32;6.22;;;2.90;;
31730;SDS011;18310;55.586;12.286;2024-01-16T02:51:36;6.35;;;2.60;;
31730;SDS011;18310;55.586;12.286;2024-01-16T02:54:41;6.93;;;2.83;;
31730;SDS011;18310;55.586;12.286;2024-01-16T02:57:44;8.30;;;2.50;;
31730;SDS011;18310;55.586;12.286;2024-01-16T03:00:48;4.97;;;2.13;;
31730;SDS011;18310;55.586;12.286;2024-01-16T03:03:51;5.70;;;1.60;;
31730;SDS011;18310;55.586;12.286;2024-01-16T03:06:55;8.73;;;2.05;;
31730;SDS011;18310;55.586;12.286;2024-01-16T03:10:00;11.45;;;1.90;;
31730;SDS011;18310;55.586;12.286;2024-01-16T03:13:03;5.40;;;1.65;;
31730;SDS011;18310;55.586;12.286;2024-01-16T03:16:07;6.40;;;1.65;;
31730;SDS011;18310;55.586;12.286;2024-01-16T03:19:11;6.25;;;1.30;;
31730;SDS011;18310;55.586;12.286;2024-01-16T03:22:15;3.13;;;1.42;;
31730;SDS011;18310;55.586;12.286;2024-01-16T03:25:20;8.30;;;1.50;;
31730;SDS011;18310;55.586;12.286;2024-01-16T03:28:24;4.63;;;1.40;;
31730;SDS011;18310;55.586;12.286;2024-01-16T03:31:27;4.95;;;1.60;;
31730;SDS011;18310;55.586;12.286;2024-01-16T03:34:51;4.60;;;1.67;;
31730;SDS011;18310;55.586;12.286;2024-01-16T03:37:55;4.32;;;1.40;;
31730;SDS011;18310;55.586;12.286;2024-01-16T03:40:58;3.65;;;1.35;;
31730;SDS011;18310;55.586;12.286;2024-01-16T03:44:01;3.95;;;1.92;;
31730;SDS011;18310;55.586;12.286;2024-01-16T03:47:05;3.63;;;1.60;;
31730;SDS011;18310;55.586;12.286;2024-01-16T03:53:13;8.57;;;1.20;;
31730;SDS011;18310;55.586;12.286;2024-01-16T03:56:17;4.18;;;1.73;;
31730;SDS011;18310;55.586;12.286;2024-01-16T03:59:20;4.20;;;1.70;;
31730;SDS011;18310;55.586;12.286;2024-01-16T04:02:24;3.30;;;1.33;;
31730;SDS011;18310;55.586;12.286;2024-01-16T04:05:29;6.10;;;1.98;;
31730;SDS011;18310;55.586;12.286;2024-01-16T04:08:34;2.92;;;1.50;;
31730;SDS011;18310;55.586;12.286;2024-01-16T04:11:37;3.85;;;1.67;;
31730;SDS011;18310;55.586;12.286;2024-01-16T04:14:40;6.93;;;1.73;;
31730;SDS011;18310;55.586;12.286;2024-01-16T04:17:44;3.67;;;1.63;;
31730;SDS011;18310;55.586;12.286;2024-01-16T04:23:53;5.60;;;2.10;;
31730;SDS011;18310;55.586;12.286;2024-01-16T04:26:56;3.35;;;1.52;;
31730;SDS011;18310;55.586;12.286;2024-01-16T04:30:00;6.72;;;1.40;;
31730;SDS011;18310;55.586;12.286;2024-01-16T04:33:04;6.20;;;1.50;;
31730;SDS011;18310;55.586;12.286;2024-01-16T04:36:09;8.80;;;1.77;;
31730;SDS011;18310;55.586;12.286;2024-01-16T04:39:12;5.25;;;1.58;;
31730;SDS011;18310;55.586;12.286;2024-01-16T04:42:15;3.85;;;1.25;;
31730;SDS011;18310;55.586;12.286;2024-01-16T04:45:19;5.43;;;1.42;;
31730;SDS011;18310;55.586;12.286;2024-01-16T04:48:22;5.03;;;1.50;;
31730;SDS011;18310;55.586;12.286;2024-01-16T04:51:27;5.47;;;1.75;;
31730;SDS011;18310;55.586;12.286;2024-01-16T04:54:30;4.07;;;1.55;;
31730;SDS011;18310;55.586;12.286;2024-01-16T04:57:34;5.93;;;2.10;;
31730;SDS011;18310;55.586;12.286;2024-01-16T05:00:37;6.30;;;1.75;;
31730;SDS011;18310;55.586;12.286;2024-01-16T05:03:41;3.35;;;1.42;;
31730;SDS011;18310;55.586;12.286;2024-01-16T05:06:49;5.32;;;2.50;;
31730;SDS011;18310;55.586;12.286;2024-01-16T05:09:53;3.20;;;1.80;;
31730;SDS011;18310;55.586;12.286;2024-01-16T05:13:18;3.78;;;1.95;;
31730;SDS011;18310;55.586;12.286;2024-01-16T05:16:21;4.40;;;1.83;;
31730;SDS011;18310;55.586;12.286;2024-01-16T05:19:24;8.45;;;2.20;;
31730;SDS011;18310;55.586;12.286;2024-01-16T05:22:28;3.92;;;1.95;;
31730;SDS011;18310;55.586;12.286;2024-01-16T05:25:31;6.22;;;2.10;;
31730;SDS011;18310;55.586;12.286;2024-01-16T05:28:36;6.10;;;2.28;;
31730;SDS011;18310;55.586;12.286;2024-01-16T05:31:40;5.85;;;2.45;;
31730;SDS011;18310;55.586;12.286;2024-01-16T05:34:45;6.35;;;2.50;;
31730;SDS011;18310;55.586;12.286;2024-01-16T05:37:49;5.70;;;2.58;;
31730;SDS011;18310;55.586;12.286;2024-01-16T05:40:52;4.05;;;1.77;;
31730;SDS011;18310;55.586;12.286;2024-01-16T05:43:57;6.95;;;2.42;;
31730;SDS011;18310;55.586;12.286;2024-01-16T05:47:00;7.88;;;2.30;;
31730;SDS011;18310;55.586;12.286;2024-01-16T05:50:04;4.68;;;2.08;;
31730;SDS011;18310;55.586;12.286;2024-01-16T05:53:09;6.25;;;2.33;;
31730;SDS011;18310;55.586;12.286;2024-01-16T05:56:12;9.93;;;2.72;;
31730;SDS011;18310;55.586;12.286;2024-01-16T05:59:17;8.68;;;2.97;;
31730;SDS011;18310;55.586;12.286;2024-01-16T06:02:25;7.85;;;3.45;;
31730;SDS011;18310;55.586;12.286;2024-01-16T06:05:29;6.93;;;2.83;;
31730;SDS011;18310;55.586;12.286;2024-01-16T06:08:32;5.32;;;2.65;;
31730;SDS011;18310;55.586;12.286;2024-01-16T06:14:42;6.07;;;3.13;;
31730;SDS011;18310;55.586;12.286;2024-01-16T06:17:45;6.97;;;2.75;;
31730;SDS011;18310;55.586;12.286;2024-01-16T06:20:50;7.00;;;3.15;;
31730;SDS011;18310;55.586;12.286;2024-01-16T06:23:53;8.82;;;2.63;;
31730;SDS011;18310;55.586;12.286;2024-01-16T06:26:57;9.45;;;3.08;;
31730;SDS011;18310;55.586;12.286;2024-01-16T06:30:02;6.78;;;3.10;;
31730;SDS011;18310;55.586;12.286;2024-01-16T06:33:06;11.70;;;4.88;;
31730;SDS011;18310;55.586;12.286;2024-01-16T06:36:10;10.73;;;4.63;;
31730;SDS011;18310;55.586;12.286;2024-01-16T06:39:13;10.70;;;6.18;;
31730;SDS011;18310;55.586;12.286;2024-01-16T06:42:24;11.65;;;4.90;;
31730;SDS011;18310;55.586;12.286;2024-01-16T06:45:29;8.77;;;4.40;;
31730;SDS011;18310;55.586;12.286;2024-01-16T06:48:33;13.10;;;6.45;;
31730;SDS011;18310;55.586;12.286;2024-01-16T06:51:38;17.70;;;7.22;;
31730;SDS011;18310;55.586;12.286;2024-01-16T06:54:42;28.20;;;10.70;;
31730;SDS011;18310;55.586;12.286;2024-01-16T06:57:45;24.65;;;9.55;;
31730;SDS011;18310;55.586;12.286;2024-01-16T07:00:50;16.85;;;7.47;;
31730;SDS011;18310;55.586;12.286;2024-01-16T07:03:53;18.90;;;6.75;;
31730;SDS011;18310;55.586;12.286;2024-01-16T07:06:57;14.90;;;5.68;;
31730;SDS011;18310;55.586;12.286;2024-01-16T07:10:01;14.63;;;6.43;;
31730;SDS011;18310;55.586;12.286;2024-01-16T07:13:05;11.73;;;5.63;;
31730;SDS011;18310;55.586;12.286;2024-01-16T07:16:10;13.02;;;5.57;;
31730;SDS011;18310;55.586;12.286;2024-01-16T07:19:15;14.25;;;5.43;;
31730;SDS011;18310;55.586;12.286;2024-01-16T07:22:24;13.02;;;6.50;;
31730;SDS011;18310;55.586;12.286;2024-01-16T07:25:28;12.27;;;6.80;;
31730;SDS011;18310;55.586;12.286;2024-01-16T07:31:37;16.88;;;6.40;;
31730;SDS011;18310;55.586;12.286;2024-01-16T07:34:40;11.77;;;5.90;;
31730;SDS011;18310;55.586;12.286;2024-01-16T07:37:44;14.77;;;6.07;;
31730;SDS011;18310;55.586;12.286;2024-01-16T07:40:47;12.05;;;6.38;;
31730;SDS011;18310;55.586;12.286;2024-01-16T07:43:50;15.65;;;6.35;;
31730;SDS011;18310;55.586;12.286;2024-01-16T07:46:55;20.15;;;7.75;;
31730;SDS011;18310;55.586;12.286;2024-01-16T07:49:58;25.98;;;7.78;;
31730;SDS011;18310;55.586;12.286;2024-01-16T07:53:01;19.05;;;7.75;;
31730;SDS011;18310;55.586;12.286;2024-01-16T07:56:05;16.77;;;7.10;;
31730;SDS011;18310;55.586;12.286;2024-01-16T08:02:12;18.70;;;7.18;;
31730;SDS011;18310;55.586;12.286;2024-01-16T08:05:16;16.65;;;6.50;;
31730;SDS011;18310;55.586;12.286;2024-01-16T08:08:23;17.52;;;6.68;;
31730;SDS011;18310;55.586;12.286;2024-01-16T08:11:27;18.70;;;6.13;;
31730;SDS011;18310;55.586;12.286;2024-01-16T08:14:31;17.25;;;6.50;;
31730;SDS011;18310;55.586;12.286;2024-01-16T08:17:35;11.32;;;5.18;;
31730;SDS011;18310;55.586;12.286;2024-01-16T08:20:39;11.85;;;5.57;;
31730;SDS011;18310;55.586;12.286;2024-01-16T08:23:43;14.95;;;5.55;;
31730;SDS011;18310;55.586;12.286;2024-01-16T08:26:46;13.82;;;4.95;;
31730;SDS011;18310;55.586;12.286;2024-01-16T08:29:50;19.27;;;6.18;;
31730;SDS011;18310;55.586;12.286;2024-01-16T08:32:55;18.63;;;7.38;;
31730;SDS011;18310;55.586;12.286;2024-01-16T08:35:59;16.10;;;7.28;;
31730;SDS011;18310;55.586;12.286;2024-01-16T08:39:03;13.75;;;6.97;;
31730;SDS011;18310;55.586;12.286;2024-01-16T08:42:07;15.30;;;5.93;;
31730;SDS011;18310;55.586;12.286;2024-01-16T08:45:13;14.25;;;6.70;;
31730;SDS011;18310;55.586;12.286;2024-01-16T08:48:18;20.63;;;6.13;;
31730;SDS011;18310;55.586;12.286;2024-01-16T08:51:22;13.07;;;6.00;;
31730;SDS011;18310;55.586;12.286;2024-01-16T08:54:25;12.93;;;6.82;;
31730;SDS011;18310;55.586;12.286;2024-01-16T08:57:29;13.65;;;5.22;;
31730;SDS011;18310;55.586;12.286;2024-01-16T09:03:38;12.82;;;4.32;;
31730;SDS011;18310;55.586;12.286;2024-01-16T09:07:00;8.32;;;3.80;;
31730;SDS011;18310;55.586;12.286;2024-01-16T09:10:07;10.57;;;3.80;;
31730;SDS011;18310;55.586;12.286;2024-01-16T09:13:11;17.52;;;4.10;;
31730;SDS011;18310;55.586;12.286;2024-01-16T09:16:14;7.82;;;3.80;;
31730;SDS011;18310;55.586;12.286;2024-01-16T09:19:18;9.20;;;4.05;;
31730;SDS011;18310;55.586;12.286;2024-01-16T09:22:26;11.20;;;4.18;;
31730;SDS011;18310;55.586;12.286;2024-01-16T09:25:29;9.18;;;4.65;;
31730;SDS011;18310;55.586;12.286;2024-01-16T09:28:32;8.35;;;3.92;;
31730;SDS011;18310;55.586;12.286;2024-01-16T09:31:36;9.80;;;4.00;;
31730;SDS011;18310;55.586;12.286;2024-01-16T09:34:39;17.08;;;4.00;;
31730;SDS011;18310;55.586;12.286;2024-01-16T09:37:44;5.82;;;2.90;;
31730;SDS011;18310;55.586;12.286;2024-01-16T09:41:14;4.57;;;2.13;;
31730;SDS011;18310;55.586;12.286;2024-01-16T09:44:18;2.70;;;1.40;;
31730;SDS011;18310;55.586;12.286;2024-01-16T09:47:22;3.88;;;1.50;;
31730;SDS011;18310;55.586;12.286;2024-01-16T09:50:27;4.10;;;1.58;;
31730;SDS011;18310;55.586;12.286;2024-01-16T09:53:30;3.60;;;1.42;;
31730;SDS011;18310;55.586;12.286;2024-01-16T09:56:36;3.55;;;1.40;;
31730;SDS011;18310;55.586;12.286;2024-01-16T09:59:47;6.07;;;1.67;;
31730;SDS011;18310;55.586;12.286;2024-01-16T10:02:51;4.00;;;1.42;;
31730;SDS011;18310;55.586;12.286;2024-01-16T10:06:01;4.60;;;1.27;;
31730;SDS011;18310;55.586;12.286;2024-01-16T10:09:07;2.63;;;1.08;;
31730;SDS011;18310;55.586;12.286;2024-01-16T10:12:15;3.17;;;1.55;;
31730;SDS011;18310;55.586;12.286;2024-01-16T10:15:19;3.45;;;1.15;;
31730;SDS011;18310;55.586;12.286;2024-01-16T10:18:24;3.78;;;1.48;;
31730;SDS011;18310;55.586;12.286;2024-01-16T10:21:29;2.67;;;1.10;;
31730;SDS011;18310;55.586;12.286;2024-01-16T10:24:34;4.30;;;1.40;;
31730;SDS011;18310;55.586;12.286;2024-01-16T10:27:39;4.13;;;1.50;;
31730;SDS011;18310;55.586;12.286;2024-01-16T10:30:43;2.28;;;0.98;;
31730;SDS011;18310;55.586;12.286;2024-01-16T10:33:46;3.58;;;1.13;;
31730;SDS011;18310;55.586;12.286;2024-01-16T10:36:50;4.53;;;1.35;;
31730;SDS011;18310;55.586;12.286;2024-01-16T10:39:54;5.95;;;1.30;;
31730;SDS011;18310;55.586;12.286;2024-01-16T10:43:00;2.58;;;1.25;;
31730;SDS011;18310;55.586;12.286;2024-01-16T10:46:08;2.72;;;1.25;;
31730;SDS011;18310;55.586;12.286;2024-01-16T10:49:13;3.80;;;1.13;;
31730;SDS011;18310;55.586;12.286;2024-01-16T10:52:17;8.18;;;1.58;;
31730;SDS011;18310;55.586;12.286;2024-01-16T10:55:23;4.25;;;1.15;;
31730;SDS011;18310;55.586;12.286;2024-01-16T11:01:58;4.75;;;1.30;;
31730;SDS011;18310;55.586;12.286;2024-01-16T11:05:04;4.78;;;1.10;;
31730;SDS011;18310;55.586;12.286;2024-01-16T11:08:08;6.50;;;1.52;;
31730;SDS011;18310;55.586;12.286;2024-01-16T11:11:15;3.40;;;1.38;;
31730;SDS011;18310;55.586;12.286;2024-01-16T11:14:19;4.18;;;1.50;;
31730;SDS011;18310;55.586;12.286;2024-01-16T11:17:27;3.42;;;1.00;;
31730;SDS011;18310;55.586;12.286;2024-01-16T11:20:33;2.67;;;1.02;;
31730;SDS011;18310;55.586;12.286;2024-01-16T11:23:58;4.40;;;1.00;;
31730;SDS011;18310;55.586;12.286;2024-01-16T11:27:01;2.55;;;0.88;;
31730;SDS011;18310;55.586;12.286;2024-01-16T11:30:06;1.55;;;0.70;;
31730;SDS011;18310;55.586;12.286;2024-01-16T11:36:49;3.13;;;1.10;;
31730;SDS011;18310;55.586;12.286;2024-01-16T11:43:36;4.30;;;1.08;;
31730;SDS011;18310;55.586;12.286;2024-01-16T11:50:28;3.33;;;0.90;;
31730;SDS011;18310;55.586;12.286;2024-01-16T11:53:33;3.17;;;1.10;;
31730;SDS011;18310;55.586;12.286;2024-01-16T11:56:52;7.13;;;1.63;;
31730;SDS011;18310;55.586;12.286;2024-01-16T12:00:18;6.22;;;1.25;;
31730;SDS011;18310;55.586;12.286;2024-01-16T12:03:23;2.55;;;1.20;;
31730;SDS011;18310;55.586;12.286;2024-01-16T12:06:37;2.05;;;0.98;;
31730;SDS011;18310;55.586;12.286;2024-01-16T12:09:42;3.22;;;1.10;;
31730;SDS011;18310;55.586;12.286;2024-01-16T12:12:45;2.97;;;1.00;;
31730;SDS011;18310;55.586;12.286;2024-01-16T12:15:58;2.35;;;0.70;;
31730;SDS011;18310;55.586;12.286;2024-01-16T12:19:06;5.10;;;1.30;;
31730;SDS011;18310;55.586;12.286;2024-01-16T12:22:13;4.15;;;0.98;;
31730;SDS011;18310;55.586;12.286;2024-01-16T12:25:18;4.07;;;1.10;;
31730;SDS011;18310;55.586;12.286;2024-01-16T12:28:23;7.78;;;1.35;;
31730;SDS011;18310;55.586;12.286;2024-01-16T12:31:54;3.67;;;1.20;;
31730;SDS011;18310;55.586;12.286;2024-01-16T12:35:08;2.22;;;0.90;;
31730;SDS011;18310;55.586;12.286;2024-01-16T12:38:12;1.90;;;0.88;;
31730;SDS011;18310;55.586;12.286;2024-01-16T12:41:16;2.28;;;1.02;;
31730;SDS011;18310;55.586;12.286;2024-01-16T12:44:30;4.50;;;0.80;;
31730;SDS011;18310;55.586;12.286;2024-01-16T12:47:35;2.05;;;0.90;;
31730;SDS011;18310;55.586;12.286;2024-01-16T12:50:38;1.77;;;0.60;;
31730;SDS011;18310;55.586;12.286;2024-01-16T12:53:41;2.07;;;0.80;;
31730;SDS011;18310;55.586;12.286;2024-01-16T12:56:45;1.85;;;0.68;;
31730;SDS011;18310;55.586;12.286;2024-01-16T12:59:49;4.10;;;0.75;;
31730;SDS011;18310;55.586;12.286;2024-01-16T13:02:56;3.30;;;0.60;;
31730;SDS011;18310;55.586;12.286;2024-01-16T13:06:03;2.13;;;0.50;;
31730;SDS011;18310;55.586;12.286;2024-01-16T13:09:07;5.07;;;0.70;;
31730;SDS011;18310;55.586;12.286;2024-01-16T13:12:19;2.13;;;0.52;;
31730;SDS011;18310;55.586;12.286;2024-01-16T13:15:23;3.15;;;0.50;;
31730;SDS011;18310;55.586;12.286;2024-01-16T13:18:28;1.37;;;0.43;;
31730;SDS011;18310;55.586;12.286;2024-01-16T13:21:33;1.50;;;0.47;;
31730;SDS011;18310;55.586;12.286;2024-01-16T13:24:37;1.15;;;0.40;;
31730;SDS011;18310;55.586;12.286;2024-01-16T13:27:51;1.92;;;0.40;;
31730;SDS011;18310;55.586;12.286;2024-01-16T13:30:55;1.35;;;0.35;;
31730;SDS011;18310;55.586;12.286;2024-01-16T13:37:05;4.40;;;0.40;;
31730;SDS011;18310;55.586;12.286;2024-01-16T13:40:17;2.92;;;0.30;;
31730;SDS011;18310;55.586;12.286;2024-01-16T13:43:26;1.15;;;0.40;;
31730;SDS011;18310;55.586;12.286;2024-01-16T13:46:29;0.60;;;0.20;;
31730;SDS011;18310;55.586;12.286;2024-01-16T13:49:54;0.90;;;0.20;;
31730;SDS011;18310;55.586;12.286;2024-01-16T13:52:57;2.33;;;0.60;;
31730;SDS011;18310;55.586;12.286;2024-01-16T13:56:00;0.98;;;0.43;;
31730;SDS011;18310;55.586;12.286;2024-01-16T13:59:04;3.53;;;0.60;;
31730;SDS011;18310;55.586;12.286;2024-01-16T14:02:07;3.80;;;0.40;;
31730;SDS011;18310;55.586;12.286;2024-01-16T14:05:13;2.05;;;0.50;;
31730;SDS011;18310;55.586;12.286;2024-01-16T14:08:18;3.63;;;0.73;;
31730;SDS011;18310;55.586;12.286;2024-01-16T14:11:22;3.10;;;0.45;;
31730;SDS011;18310;55.586;12.286;2024-01-16T14:14:25;3.57;;;0.47;;
31730;SDS011;18310;55.586;12.286;2024-01-16T14:17:28;2.75;;;0.47;;
31730;SDS011;18310;55.586;12.286;2024-01-16T14:20:33;2.30;;;0.43;;
31730;SDS011;18310;55.586;12.286;2024-01-16T14:23:37;1.35;;;0.35;;
31730;SDS011;18310;55.586;12.286;2024-01-16T14:26:41;1.48;;;0.55;;
31730;SDS011;18310;55.586;12.286;2024-01-16T14:30:09;2.22;;;0.88;;
31730;SDS011;18310;55.586;12.286;2024-01-16T14:33:15;2.05;;;0.40;;
31730;SDS011;18310;55.586;12.286;2024-01-16T14:36:19;2.47;;;0.60;;
31730;SDS011;18310;55.586;12.286;2024-01-16T14:39:22;2.85;;;0.50;;
31730;SDS011;18310;55.586;12.286;2024-01-16T14:42:28;2.95;;;0.38;;
31730;SDS011;18310;55.586;12.286;2024-01-16T14:45:35;1.88;;;0.40;;
31730;SDS011;18310;55.586;12.286;2024-01-16T14:48:43;3.13;;;0.75;;
31730;SDS011;18310;55.586;12.286;2024-01-16T14:51:47;1.80;;;0.63;;
31730;SDS011;18310;55.586;12.286;2024-01-16T14:54:50;1.67;;;0.50;;
31730;SDS011;18310;55.586;12.286;2024-01-16T14:57:53;2.10;;;0.43;;
31730;SDS011;18310;55.586;12.286;2024-01-16T15:01:04;1.10;;;0.50;;
31730;SDS011;18310;55.586;12.286;2024-01-16T15:04:10;2.75;;;0.98;;
31730;SDS011;18310;55.586;12.286;2024-01-16T15:07:15;6.20;;;1.45;;
31730;SDS011;18310;55.586;12.286;2024-01-16T15:10:19;2.75;;;0.80;;
31730;SDS011;18310;55.586;12.286;2024-01-16T15:13:23;7.75;;;0.68;;
31730;SDS011;18310;55.586;12.286;2024-01-16T15:16:29;1.83;;;0.63;;
31730;SDS011;18310;55.586;12.286;2024-01-16T15:19:33;3.03;;;0.85;;
31730;SDS011;18310;55.586;12.286;2024-01-16T15:22:39;2.85;;;0.68;;
31730;SDS011;18310;55.586;12.286;2024-01-16T15:25:47;4.20;;;0.95;;
31730;SDS011;18310;55.586;12.286;2024-01-16T15:28:51;3.15;;;0.60;;
31730;SDS011;18310;55.586;12.286;2024-01-16T15:31:56;2.85;;;0.80;;
31730;SDS011;18310;55.586;12.286;2024-01-16T15:35:00;0.77;;;0.38;;
31730;SDS011;18310;55.586;12.286;2024-01-16T15:38:04;2.50;;;0.73;;
31730;SDS011;18310;55.586;12.286;2024-01-16T15:41:07;1.33;;;0.30;;
31730;SDS011;18310;55.586;12.286;2024-01-16T15:44:10;4.55;;;0.50;;
31730;SDS011;18310;55.586;12.286;2024-01-16T15:47:16;2.60;;;0.77;;
31730;SDS011;18310;55.586;12.286;2024-01-16T15:50:20;2.95;;;0.77;;
31730;SDS011;18310;55.586;12.286;2024-01-16T15:53:25;5.38;;;1.05;;
31730;SDS011;18310;55.586;12.286;2024-01-16T15:56:29;3.20;;;1.08;;
31730;SDS011;18310;55.586;12.286;2024-01-16T15:59:34;2.00;;;0.70;;
31730;SDS011;18310;55.586;12.286;2024-01-16T16:02:38;3.35;;;0.70;;
31730;SDS011;18310;55.586;12.286;2024-01-16T16:05:42;3.78;;;0.82;;
31730;SDS011;18310;55.586;12.286;2024-01-16T16:08:46;3.67;;;0.40;;
31730;SDS011;18310;55.586;12.286;2024-01-16T16:11:50;2.55;;;0.98;;
31730;SDS011;18310;55.586;12.286;2024-01-16T16:14:54;2.10;;;0.47;;
31730;SDS011;18310;55.586;12.286;2024-01-16T16:18:00;7.40;;;0.55;;
31730;SDS011;18310;55.586;12.286;2024-01-16T16:21:04;3.00;;;0.80;;
31730;SDS011;18310;55.586;12.286;2024-01-16T16:24:08;3.75;;;0.70;;
31730;SDS011;18310;55.586;12.286;2024-01-16T16:27:21;2.47;;;0.77;;
31730;SDS011;18310;55.586;12.286;2024-01-16T16:30:25;3.85;;;1.35;;
31730;SDS011;18310;55.586;12.286;2024-01-16T16:33:46;3.00;;;1.00;;
31730;SDS011;18310;55.586;12.286;2024-01-16T16:36:49;10.45;;;1.92;;
31730;SDS011;18310;55.586;12.286;2024-01-16T16:39:54;4.97;;;1.70;;
31730;SDS011;18310;55.586;12.286;2024-01-16T16:42:57;4.00;;;1.70;;
31730;SDS011;18310;55.586;12.286;2024-01-16T16:46:01;7.40;;;1.77;;
31730;SDS011;18310;55.586;12.286;2024-01-16T16:49:06;3.45;;;1.67;;
31730;SDS011;18310;55.586;12.286;2024-01-16T16:52:11;7.22;;;2.25;;
31730;SDS011;18310;55.586;12.286;2024-01-16T16:55:14;8.35;;;2.20;;
31730;SDS011;18310;55.586;12.286;2024-01-16T16:58:18;6.25;;;2.42;;
31730;SDS011;18310;55.586;12.286;2024-01-16T17:01:22;7.93;;;3.13;;
31730;SDS011;18310;55.586;12.286;2024-01-16T17:04:27;6.20;;;2.90;;
31730;SDS011;18310;55.586;12.286;2024-01-16T17:07:31;6.28;;;2.90;;
31730;SDS011;18310;55.586;12.286;2024-01-16T17:10:35;4.82;;;2.47;;
31730;SDS011;18310;55.586;12.286;2024-01-16T17:13:39;5.25;;;2.50;;
31730;SDS011;18310;55.586;12.286;2024-01-16T17:16:44;6.70;;;2.30;;
31730;SDS011;18310;55.586;12.286;2024-01-16T17:19:49;7.30;;;2.72;;
31730;SDS011;18310;55.586;12.286;2024-01-16T17:22:53;4.65;;;2.13;;
31730;SDS011;18310;55.586;12.286;2024-01-16T17:25:56;5.95;;;2.13;;
31730;SDS011;18310;55.586;12.286;2024-01-16T17:29:01;4.60;;;2.05;;
31730;SDS011;18310;55.586;12.286;2024-01-16T17:32:04;4.20;;;2.10;;
31730;SDS011;18310;55.586;12.286;2024-01-16T17:35:11;4.78;;;1.70;;
31730;SDS011;18310;55.586;12.286;2024-01-16T17:38:15;4.30;;;1.27;;
31730;SDS011;18310;55.586;12.286;2024-01-16T17:41:20;5.93;;;1.88;;
31730;SDS011;18310;55.586;12.286;2024-01-16T17:44:28;6.15;;;1.83;;
31730;SDS011;18310;55.586;12.286;2024-01-16T17:50:38;5.50;;;1.00;;
31730;SDS011;18310;55.586;12.286;2024-01-16T17:53:41;3.40;;;1.40;;
31730;SDS011;18310;55.586;12.286;2024-01-16T17:59:50;4.38;;;1.33;;
31730;SDS011;18310;55.586;12.286;2024-01-16T18:06:00;2.88;;;1.10;;
31730;SDS011;18310;55.586;12.286;2024-01-16T18:09:07;3.75;;;1.38;;
31730;SDS011;18310;55.586;12.286;2024-01-16T18:12:12;4.45;;;1.30;;
31730;SDS011;18310;55.586;12.286;2024-01-16T18:15:15;7.57;;;1.30;;
31730;SDS011;18310;55.586;12.286;2024-01-16T18:18:20;2.80;;;1.40;;
31730;SDS011;18310;55.586;12.286;2024-01-16T18:21:25;3.92;;;1.13;;
31730;SDS011;18310;55.586;12.286;2024-01-16T18:24:29;3.17;;;1.10;;
31730;SDS011;18310;55.586;12.286;2024-01-16T18:30:17;3.47;;;1.33;;
31730;SDS011;18310;55.586;12.286;2024-01-16T18:33:24;5.60;;;1.33;;
31730;SDS011;18310;55.586;12.286;2024-01-16T18:36:29;4.32;;;1.40;;
31730;SDS011;18310;55.586;12.286;2024-01-16T18:39:32;4.07;;;1.33;;
31730;SDS011;18310;55.586;12.286;2024-01-16T18:42:37;6.18;;;1.85;;
31730;SDS011;18310;55.586;12.286;2024-01-16T18:45:42;7.22;;;1.83;;
31730;SDS011;18310;55.586;12.286;2024-01-16T18:48:45;4.95;;;1.55;;
31730;SDS011;18310;55.586;12.286;2024-01-16T18:54:52;4.88;;;1.83;;
31730;SDS011;18310;55.586;12.286;2024-01-16T18:57:56;4.72;;;1.67;;
31730;SDS011;18310;55.586;12.286;2024-01-16T19:01:05;4.72;;;1.83;;
31730;SDS011;18310;55.586;12.286;2024-01-16T19:04:09;6.63;;;2.22;;
31730;SDS011;18310;55.586;12.286;2024-01-16T19:07:15;6.07;;;2.22;;
31730;SDS011;18310;55.586;12.286;2024-01-16T19:10:19;7.63;;;2.42;;
31730;SDS011;18310;55.586;12.286;2024-01-16T19:13:25;7.40;;;2.40;;
31730;SDS011;18310;55.586;12.286;2024-01-16T19:16:30;5.30;;;2.47;;
31730;SDS011;18310;55.586;12.286;2024-01-16T19:19:34;9.90;;;3.17;;
31730;SDS011;18310;55.586;12.286;2024-01-16T19:22:39;6.53;;;2.22;;
31730;SDS011;18310;55.586;12.286;2024-01-16T19:28:47;5.83;;;2.57;;
31730;SDS011;18310;55.586;12.286;2024-01-16T19:31:52;5.30;;;2.55;;